Time;durP1;ratioP1;P1;durP2;ratioP2;P2;SDS_P1;SDS_P2;PMS_P1;PMS_P2;Temp;Humidity;BMP_temperature;BMP_pressure;BME280_temperature;BME280_humidity;BME280_pressure;Samples;Min_cycle;Max_cycle;Signal;HPM_P1;HPM_P2
2021/12/28 00:01:51;;;;;;;69.72;38.95;;;;;;;;;;5034203;28;20032;-72
2021/12/28 00:04:16;;;;;;;88.00;48.60;;;;;;;;;;5034930;28;20033;-72
2021/12/28 00:06:41;;;;;;;116.28;61.20;;;;;;;;;;5035081;28;20504;-73
2021/12/28 00:09:08;;;;;;;133.77;69.97;;;;;;;;;;5035450;28;20036;-72
2021/12/28 00:11:33;;;;;;;132.10;68.82;;;;;;;;;;5035699;28;20052;-72
2021/12/28 00:14:01;;;;;;;120.35;60.22;;;;;;;;;;5035528;28;20539;-72
2021/12/28 00:19:13;;;;;;;149.45;63.00;;;;;;;;;;5003421;28;20045;-72
2021/12/28 00:21:38;;;;;;;94.30;44.30;;;;;;;;;;5034819;28;20127;-72
2021/12/28 00:24:04;;;;;;;87.90;46.83;;;;;;;;;;5035534;28;20025;-72
2021/12/28 00:26:29;;;;;;;98.15;51.47;;;;;;;;;;5035380;28;20491;-72
2021/12/28 00:28:55;;;;;;;90.32;47.63;;;;;;;;;;5035271;28;20025;-72
2021/12/28 00:31:22;;;;;;;88.20;45.97;;;;;;;;;;5035621;28;20368;-72
2021/12/28 00:33:47;;;;;;;110.55;56.65;;;;;;;;;;5035394;28;20523;-72
2021/12/28 00:36:13;;;;;;;93.43;47.63;;;;;;;;;;5035223;28;20151;-72
2021/12/28 00:38:39;;;;;;;106.40;55.67;;;;;;;;;;5034861;28;20471;-74
2021/12/28 00:41:04;;;;;;;123.15;64.95;;;;;;;;;;5034427;28;20025;-73
2021/12/28 00:43:31;;;;;;;113.82;58.22;;;;;;;;;;5016167;28;20050;-73
2021/12/28 00:45:56;;;;;;;107.78;57.17;;;;;;;;;;5035369;28;20032;-72
2021/12/28 00:48:22;;;;;;;126.03;65.28;;;;;;;;;;5035528;28;20029;-72
2021/12/28 00:50:48;;;;;;;99.25;52.30;;;;;;;;;;5033809;28;20480;-73
2021/12/28 00:53:13;;;;;;;91.40;47.88;;;;;;;;;;5016313;28;20025;-71
2021/12/28 00:55:39;;;;;;;102.18;52.63;;;;;;;;;;5034252;28;20082;-72
2021/12/28 00:58:05;;;;;;;103.65;51.13;;;;;;;;;;5035042;28;20064;-73
2021/12/28 01:00:32;;;;;;;99.40;51.67;;;;;;;;;;5016327;28;20485;-73
2021/12/28 01:02:58;;;;;;;104.90;51.97;;;;;;;;;;5034935;28;20036;-73
2021/12/28 01:05:25;;;;;;;92.05;49.28;;;;;;;;;;5035000;28;20127;-71
2021/12/28 01:07:50;;;;;;;107.95;53.33;;;;;;;;;;5035153;28;20029;-73
2021/12/28 01:10:20;;;;;;;96.65;51.75;;;;;;;;;;5034892;28;20039;-72
2021/12/28 01:12:45;;;;;;;91.40;47.00;;;;;;;;;;5034798;28;20032;-73
2021/12/28 01:15:11;;;;;;;85.85;47.10;;;;;;;;;;5037876;28;20025;-72
2021/12/28 01:17:37;;;;;;;80.13;41.20;;;;;;;;;;5038124;28;20422;-73
2021/12/28 01:20:05;;;;;;;77.28;43.58;;;;;;;;;;5037883;28;20061;-72
2021/12/28 01:22:31;;;;;;;91.35;49.17;;;;;;;;;;5038458;28;20452;-73
2021/12/28 01:24:56;;;;;;;72.32;39.65;;;;;;;;;;5037331;28;20024;-72
2021/12/28 01:27:21;;;;;;;72.40;40.45;;;;;;;;;;5038496;28;20374;-72
2021/12/28 01:29:47;;;;;;;66.93;36.90;;;;;;;;;;5038190;28;20103;-72
2021/12/28 01:32:13;;;;;;;60.90;33.45;;;;;;;;;;5038223;28;20025;-73
2021/12/28 01:34:40;;;;;;;66.28;36.25;;;;;;;;;;5038029;28;20498;-73
2021/12/28 01:37:06;;;;;;;69.47;33.53;;;;;;;;;;5038318;28;20056;-72
2021/12/28 01:39:31;;;;;;;62.40;34.95;;;;;;;;;;5038059;28;20075;-72
2021/12/28 01:41:57;;;;;;;59.92;32.90;;;;;;;;;;5038257;28;20021;-73
2021/12/28 01:44:22;;;;;;;65.43;34.50;;;;;;;;;;5037424;28;20028;-72
2021/12/28 01:46:48;;;;;;;62.08;32.80;;;;;;;;;;5037304;28;20024;-72
2021/12/28 01:49:13;;;;;;;52.20;28.17;;;;;;;;;;5037026;28;20028;-72
2021/12/28 01:51:39;;;;;;;53.75;26.52;;;;;;;;;;5045878;28;20032;-73
2021/12/28 01:54:05;;;;;;;45.63;25.77;;;;;;;;;;5038614;28;20017;-73
2021/12/28 01:56:32;;;;;;;42.00;24.17;;;;;;;;;;5057422;28;20032;-73
2021/12/28 01:58:58;;;;;;;56.95;31.45;;;;;;;;;;5057347;28;20037;-73
2021/12/28 02:01:24;;;;;;;60.47;32.95;;;;;;;;;;5057430;28;20047;-72
2021/12/28 02:03:50;;;;;;;74.57;41.05;;;;;;;;;;5058209;28;20054;-72
2021/12/28 02:06:16;;;;;;;78.18;42.15;;;;;;;;;;5056547;28;20088;-73
2021/12/28 02:08:41;;;;;;;76.63;38.83;;;;;;;;;;5057711;28;20028;-72
2021/12/28 02:11:08;;;;;;;76.22;40.05;;;;;;;;;;5057226;28;20020;-72
2021/12/28 02:13:33;;;;;;;83.63;42.85;;;;;;;;;;5057499;28;20487;-72
2021/12/28 02:15:59;;;;;;;73.53;39.17;;;;;;;;;;5057537;28;20021;-72
2021/12/28 02:18:25;;;;;;;76.15;41.40;;;;;;;;;;5057530;28;20036;-72
2021/12/28 02:20:52;;;;;;;80.65;42.70;;;;;;;;;;5057089;28;20025;-72
2021/12/28 02:23:17;;;;;;;85.35;44.17;;;;;;;;;;5057130;28;20017;-73
2021/12/28 02:25:43;;;;;;;70.95;37.17;;;;;;;;;;5056415;28;20021;-72
2021/12/28 02:28:09;;;;;;;63.08;34.22;;;;;;;;;;5057424;28;20020;-72
2021/12/28 02:30:36;;;;;;;67.13;36.10;;;;;;;;;;5056706;28;20075;-72
2021/12/28 02:33:02;;;;;;;69.15;35.40;;;;;;;;;;5056686;28;20025;-72
2021/12/28 02:35:27;;;;;;;61.88;32.53;;;;;;;;;;5056651;28;20030;-72
2021/12/28 02:37:54;;;;;;;57.13;30.60;;;;;;;;;;5057058;28;20028;-72
2021/12/28 02:40:21;;;;;;;63.10;31.20;;;;;;;;;;5057095;28;20028;-73
2021/12/28 02:42:47;;;;;;;57.22;30.58;;;;;;;;;;5056813;28;20032;-72
2021/12/28 02:45:14;;;;;;;58.47;31.63;;;;;;;;;;5057202;28;20756;-72
2021/12/28 02:47:44;;;;;;;51.58;28.17;;;;;;;;;;5056975;28;20033;-72
2021/12/28 02:50:11;;;;;;;62.25;32.38;;;;;;;;;;5056446;28;20898;-72
2021/12/28 02:52:37;;;;;;;66.82;33.47;;;;;;;;;;5038218;28;20486;-72
2021/12/28 02:55:07;;;;;;;55.10;28.73;;;;;;;;;;5055620;28;20387;-72
2021/12/28 02:57:32;;;;;;;;;;;;;;;;;;5056001;28;20020;-72
2021/12/28 02:59:57;;;;;;;51.97;27.90;;;;;;;;;;5055783;28;19909;-72
2021/12/28 03:02:23;;;;;;;58.65;29.75;;;;;;;;;;5055861;28;20258;-72
2021/12/28 03:04:48;;;;;;;58.28;29.77;;;;;;;;;;5056228;28;20021;-72
2021/12/28 03:07:13;;;;;;;55.80;30.15;;;;;;;;;;5055747;28;20024;-74
2021/12/28 03:09:40;;;;;;;68.75;33.92;;;;;;;;;;5055520;28;20024;-72
2021/12/28 03:12:05;;;;;;;63.60;33.70;;;;;;;;;;5056059;28;20052;-73
2021/12/28 03:14:31;;;;;;;60.20;34.38;;;;;;;;;;5055349;28;20851;-72
2021/12/28 03:16:56;;;;;;;52.92;30.35;;;;;;;;;;5055294;28;20452;-72
2021/12/28 03:19:21;;;;;;;54.90;30.13;;;;;;;;;;5056369;28;20078;-72
2021/12/28 03:21:47;;;;;;;56.60;30.40;;;;;;;;;;5056124;28;20033;-72
2021/12/28 03:24:13;;;;;;;61.63;30.38;;;;;;;;;;5054949;28;20028;-72
2021/12/28 03:26:39;;;;;;;60.38;30.90;;;;;;;;;;5037231;28;20021;-73
2021/12/28 03:29:04;;;;;;;53.88;28.85;;;;;;;;;;5055941;28;20537;-73
2021/12/28 03:31:30;;;;;;;58.35;29.92;;;;;;;;;;5055704;28;20028;-73
2021/12/28 03:33:55;;;;;;;68.88;32.13;;;;;;;;;;5054829;28;20056;-72
2021/12/28 03:36:22;;;;;;;52.17;26.52;;;;;;;;;;5055204;28;20058;-72
2021/12/28 03:38:47;;;;;;;44.50;24.90;;;;;;;;;;5055300;28;20493;-73
2021/12/28 03:41:14;;;;;;;36.75;20.88;;;;;;;;;;5055080;28;20055;-72
2021/12/28 03:43:41;;;;;;;38.22;21.02;;;;;;;;;;5055974;28;20039;-72
2021/12/28 03:46:07;;;;;;;41.63;23.15;;;;;;;;;;5055836;28;20082;-72
2021/12/28 03:48:33;;;;;;;40.10;22.50;;;;;;;;;;5054753;28;20032;-72
2021/12/28 03:50:58;;;;;;;39.53;21.23;;;;;;;;;;5055592;28;20032;-72
2021/12/28 03:53:24;;;;;;;34.13;19.13;;;;;;;;;;5055065;28;20505;-72
2021/12/28 03:55:49;;;;;;;36.40;19.70;;;;;;;;;;5055190;28;20024;-72
2021/12/28 03:58:15;;;;;;;37.10;20.65;;;;;;;;;;5055309;28;20077;-72
2021/12/28 04:00:45;;;;;;;54.88;28.88;;;;;;;;;;5055770;28;20526;-72
2021/12/28 04:03:11;;;;;;;63.22;32.25;;;;;;;;;;5036388;28;20387;-72
2021/12/28 04:05:37;;;;;;;65.55;33.40;;;;;;;;;;5054295;28;20068;-73
2021/12/28 04:08:03;;;;;;;59.40;28.70;;;;;;;;;;5055790;28;20440;-72
2021/12/28 04:10:31;;;;;;;63.08;33.08;;;;;;;;;;5055756;28;20024;-72
2021/12/28 04:12:57;;;;;;;81.22;39.22;;;;;;;;;;5054546;28;20447;-72
2021/12/28 04:15:23;;;;;;;92.78;44.40;;;;;;;;;;5054650;28;20032;-73
2021/12/28 04:17:48;;;;;;;65.22;33.10;;;;;;;;;;5055668;28;20110;-74
2021/12/28 04:20:16;;;;;;;45.58;22.58;;;;;;;;;;5054554;28;20047;-73
2021/12/28 04:22:42;;;;;;;44.78;23.27;;;;;;;;;;5055693;28;20025;-72
2021/12/28 04:25:07;;;;;;;36.90;20.15;;;;;;;;;;5054878;28;20028;-72
2021/12/28 04:27:33;;;;;;;39.80;19.77;;;;;;;;;;5054635;28;20024;-73
2021/12/28 04:29:58;;;;;;;41.05;20.65;;;;;;;;;;5055123;28;20024;-73
2021/12/28 04:32:24;;;;;;;39.40;20.55;;;;;;;;;;5054592;28;20024;-72
2021/12/28 04:34:49;;;;;;;39.95;20.75;;;;;;;;;;5055139;28;20028;-72
2021/12/28 04:37:14;;;;;;;42.05;21.83;;;;;;;;;;5054428;28;20136;-73
2021/12/28 04:39:40;;;;;;;41.45;21.73;;;;;;;;;;5055239;28;20024;-72
2021/12/28 04:42:05;;;;;;;59.72;35.97;;;;;;;;;;5054659;28;20474;-73
2021/12/28 04:44:31;;;;;;;54.70;33.70;;;;;;;;;;5036091;28;20025;-72
2021/12/28 04:46:57;;;;;;;45.30;19.85;;;;;;;;;;5054718;28;20025;-73
2021/12/28 04:49:25;;;;;;;72.53;19.45;;;;;;;;;;5036201;28;20025;-73
2021/12/28 04:51:50;;;;;;;46.33;16.42;;;;;;;;;;5037696;28;20021;-72
2021/12/28 04:54:17;;;;;;;38.70;16.55;;;;;;;;;;5037770;28;20021;-72
2021/12/28 04:56:42;;;;;;;36.00;17.83;;;;;;;;;;5038128;28;20048;-72
2021/12/28 04:59:08;;;;;;;36.42;16.23;;;;;;;;;;5039091;28;20029;-72
2021/12/28 05:01:36;;;;;;;36.85;19.85;;;;;;;;;;5038508;28;20037;-72
2021/12/28 05:04:02;;;;;;;35.90;18.35;;;;;;;;;;5038995;28;20079;-73
2021/12/28 05:06:27;;;;;;;35.90;17.77;;;;;;;;;;5037778;28;20049;-73
2021/12/28 05:08:53;;;;;;;32.55;16.42;;;;;;;;;;5038153;28;20033;-72
2021/12/28 05:11:18;;;;;;;44.53;23.98;;;;;;;;;;5038062;28;20032;-72
2021/12/28 05:13:45;;;;;;;45.63;24.65;;;;;;;;;;5038392;28;20020;-73
2021/12/28 05:16:14;;;;;;;50.67;17.55;;;;;;;;;;5038502;28;20480;-72
2021/12/28 05:18:39;;;;;;;39.42;17.58;;;;;;;;;;5038499;28;20723;-73
2021/12/28 05:21:04;;;;;;;31.48;15.32;;;;;;;;;;5037789;28;20523;-72
2021/12/28 05:23:30;;;;;;;32.58;15.10;;;;;;;;;;5038429;28;20031;-73
2021/12/28 05:25:55;;;;;;;27.88;14.07;;;;;;;;;;5038149;28;20035;-72
2021/12/28 05:28:20;;;;;;;37.92;14.48;;;;;;;;;;5038256;28;20048;-72
2021/12/28 05:30:46;;;;;;;36.50;17.33;;;;;;;;;;5037111;28;20422;-73
2021/12/28 05:33:11;;;;;;;26.67;14.40;;;;;;;;;;5030586;28;20035;-73
2021/12/28 05:35:37;;;;;;;67.22;27.30;;;;;;;;;;5019961;28;20387;-72
2021/12/28 05:38:02;;;;;;;50.83;21.27;;;;;;;;;;5016980;28;20061;-73
2021/12/28 05:40:27;;;;;;;80.03;41.47;;;;;;;;;;5018380;28;20022;-72
2021/12/28 05:42:53;;;;;;;351.65;184.60;;;;;;;;;;5018292;28;20022;-71
2021/12/28 05:45:18;;;;;;;119.60;55.20;;;;;;;;;;5016861;28;20375;-72
2021/12/28 05:47:43;;;;;;;110.45;48.05;;;;;;;;;;5017399;28;20022;-72
2021/12/28 05:50:09;;;;;;;98.85;43.17;;;;;;;;;;5017222;28;20079;-73
2021/12/28 05:52:35;;;;;;;57.65;26.67;;;;;;;;;;5017216;28;20037;-72
2021/12/28 05:55:01;;;;;;;96.93;42.58;;;;;;;;;;5017843;28;20032;-73
2021/12/28 05:57:26;;;;;;;90.90;40.47;;;;;;;;;;5016886;28;20056;-73
2021/12/28 05:59:51;;;;;;;55.15;25.33;;;;;;;;;;5015143;28;20073;-73
2021/12/28 06:02:17;;;;;;;40.10;16.00;;;;;;;;;;5018010;28;20456;-73
2021/12/28 06:04:42;;;;;;;52.20;15.93;;;;;;;;;;5016798;28;20029;-72
2021/12/28 06:07:08;;;;;;;68.30;19.85;;;;;;;;;;5016208;28;20411;-72
2021/12/28 06:09:33;;;;;;;91.70;35.15;;;;;;;;;;5016998;28;20136;-73
2021/12/28 06:11:58;;;;;;;183.57;58.00;;;;;;;;;;5016466;28;20028;-73
2021/12/28 06:14:24;;;;;;;129.20;38.03;;;;;;;;;;5021404;28;20433;-74
2021/12/28 06:16:49;;;;;;;149.52;51.42;;;;;;;;;;5056680;28;20039;-73
2021/12/28 06:19:14;;;;;;;172.32;78.00;;;;;;;;;;5057129;28;20348;-73
2021/12/28 06:21:40;;;;;;;224.20;69.55;;;;;;;;;;5056997;28;20029;-72
2021/12/28 06:24:06;;;;;;;604.40;240.98;;;;;;;;;;5053508;28;20762;-73
2021/12/28 06:26:32;;;;;;;641.47;206.75;;;;;;;;;;5036192;28;20033;-73
2021/12/28 06:28:57;;;;;;;245.23;61.38;;;;;;;;;;5043888;28;20104;-73
2021/12/28 06:31:23;;;;;;;95.32;37.88;;;;;;;;;;5037065;28;20427;-72
2021/12/28 06:33:49;;;;;;;64.45;26.15;;;;;;;;;;5036949;28;20025;-72
2021/12/28 06:36:14;;;;;;;48.50;19.95;;;;;;;;;;5037075;28;20563;-71
2021/12/28 06:38:39;;;;;;;101.90;39.65;;;;;;;;;;5037130;28;20033;-72
2021/12/28 06:41:06;;;;;;;64.43;28.20;;;;;;;;;;5035676;28;20104;-72
2021/12/28 06:43:31;;;;;;;44.50;25.42;;;;;;;;;;5034581;28;20116;-72
2021/12/28 06:45:57;;;;;;;33.55;19.15;;;;;;;;;;5037259;28;20428;-72
2021/12/28 06:48:22;;;;;;;74.38;40.00;;;;;;;;;;5036856;28;20036;-74
2021/12/28 06:50:49;;;;;;;43.80;23.35;;;;;;;;;;5035983;28;20116;-72
2021/12/28 06:53:14;;;;;;;57.30;32.97;;;;;;;;;;5035934;28;20028;-71
2021/12/28 06:55:40;;;;;;;45.30;26.05;;;;;;;;;;5035927;28;20092;-72
2021/12/28 06:58:05;;;;;;;60.15;22.05;;;;;;;;;;5035837;28;20029;-72
2021/12/28 07:00:30;;;;;;;34.17;16.02;;;;;;;;;;5034004;28;20090;-73
2021/12/28 07:02:56;;;;;;;36.80;18.80;;;;;;;;;;5036247;28;20025;-72
2021/12/28 07:05:21;;;;;;;45.42;18.42;;;;;;;;;;5035935;28;20146;-73
2021/12/28 07:07:46;;;;;;;43.15;20.80;;;;;;;;;;5034474;28;20482;-73
2021/12/28 07:10:12;;;;;;;48.72;23.83;;;;;;;;;;5036183;28;20080;-74
2021/12/28 07:12:37;;;;;;;63.55;19.90;;;;;;;;;;5036246;28;20025;-73
2021/12/28 07:15:03;;;;;;;34.53;17.88;;;;;;;;;;5035785;28;20028;-72
2021/12/28 07:17:28;;;;;;;38.63;17.17;;;;;;;;;;5035600;28;20039;-73
2021/12/28 07:19:54;;;;;;;53.20;25.17;;;;;;;;;;5035840;28;20032;-72
2021/12/28 07:22:20;;;;;;;43.00;19.38;;;;;;;;;;5035178;28;20029;-72
2021/12/28 07:24:45;;;;;;;65.05;30.45;;;;;;;;;;5036186;28;20487;-73
2021/12/28 07:27:11;;;;;;;61.58;35.15;;;;;;;;;;5036343;28;20028;-73
2021/12/28 07:29:36;;;;;;;55.80;27.92;;;;;;;;;;5035644;28;20451;-74
2021/12/28 07:32:03;;;;;;;47.92;26.05;;;;;;;;;;5036189;28;20984;-73
2021/12/28 07:34:28;;;;;;;54.47;29.05;;;;;;;;;;5017214;28;20035;-74
2021/12/28 07:36:54;;;;;;;124.63;56.53;;;;;;;;;;5034810;28;20029;-73
2021/12/28 07:39:19;;;;;;;79.05;36.00;;;;;;;;;;5036287;28;20051;-73
2021/12/28 07:41:46;;;;;;;54.47;24.20;;;;;;;;;;5034577;28;20103;-73
2021/12/28 07:44:11;;;;;;;61.03;29.30;;;;;;;;;;5034419;28;20049;-74
2021/12/28 07:46:36;;;;;;;38.00;19.90;;;;;;;;;;5036162;28;20025;-73
2021/12/28 07:49:02;;;;;;;75.30;39.13;;;;;;;;;;5034632;28;20387;-73
2021/12/28 07:51:27;;;;;;;96.93;52.47;;;;;;;;;;5034734;28;20404;-74
2021/12/28 07:53:53;;;;;;;49.13;25.42;;;;;;;;;;5036041;28;20032;-72
2021/12/28 07:56:18;;;;;;;55.88;30.98;;;;;;;;;;5035220;28;20056;-73
2021/12/28 07:58:43;;;;;;;805.97;252.52;;;;;;;;;;5035019;28;20033;-73
2021/12/28 08:01:09;;;;;;;394.60;109.20;;;;;;;;;;5016991;28;20037;-73
2021/12/28 08:03:34;;;;;;;144.07;58.97;;;;;;;;;;5034905;28;20040;-73
2021/12/28 08:06:00;;;;;;;99.28;48.05;;;;;;;;;;5035561;28;20456;-73
2021/12/28 08:08:25;;;;;;;98.45;47.47;;;;;;;;;;5035696;28;20053;-74
2021/12/28 08:10:50;;;;;;;76.75;38.60;;;;;;;;;;5035070;28;20020;-73
2021/12/28 08:13:16;;;;;;;78.88;42.53;;;;;;;;;;5034690;28;20562;-73
2021/12/28 08:15:42;;;;;;;72.82;38.15;;;;;;;;;;5018222;28;20537;-74
2021/12/28 08:18:09;;;;;;;89.18;44.30;;;;;;;;;;5034961;28;20049;-73
2021/12/28 08:20:35;;;;;;;110.65;57.63;;;;;;;;;;5034584;28;20309;-73
2021/12/28 08:23:00;;;;;;;159.55;67.38;;;;;;;;;;5036658;28;20068;-73
2021/12/28 08:25:26;;;;;;;173.93;75.85;;;;;;;;;;5038627;28;20452;-72
2021/12/28 08:27:51;;;;;;;264.27;123.90;;;;;;;;;;5039005;28;20025;-72
2021/12/28 08:30:17;;;;;;;134.32;59.80;;;;;;;;;;5020423;28;20025;-72
2021/12/28 08:32:43;;;;;;;74.30;40.63;;;;;;;;;;5038682;28;20479;-73
2021/12/28 08:35:09;;;;;;;37.90;24.95;;;;;;;;;;5038820;28;20052;-72
2021/12/28 08:37:34;;;;;;;48.65;29.60;;;;;;;;;;5039259;28;20059;-73
2021/12/28 08:40:00;;;;;;;57.38;35.22;;;;;;;;;;5021225;28;20033;-74
2021/12/28 08:42:25;;;;;;;52.75;30.67;;;;;;;;;;5038605;28;20029;-72
2021/12/28 08:44:51;;;;;;;80.72;41.40;;;;;;;;;;5020362;28;20057;-73
2021/12/28 08:47:17;;;;;;;60.60;36.53;;;;;;;;;;5037928;28;20021;-73
2021/12/28 08:49:42;;;;;;;84.43;46.38;;;;;;;;;;5039247;28;20025;-73
2021/12/28 08:52:08;;;;;;;128.95;65.68;;;;;;;;;;5019984;28;20032;-74
2021/12/28 08:54:33;;;;;;;118.57;57.63;;;;;;;;;;5020909;28;20052;-72
2021/12/28 08:56:59;;;;;;;267.00;127.93;;;;;;;;;;5038614;28;20021;-73
2021/12/28 08:59:25;;;;;;;206.07;103.05;;;;;;;;;;5038477;28;20021;-72
2021/12/28 09:01:50;;;;;;;138.60;66.72;;;;;;;;;;5039111;28;20032;-73
2021/12/28 09:04:16;;;;;;;115.68;61.60;;;;;;;;;;5038710;28;20039;-74
2021/12/28 09:06:42;;;;;;;105.85;55.80;;;;;;;;;;5038103;28;20119;-73
2021/12/28 09:09:08;;;;;;;132.02;65.65;;;;;;;;;;5037879;28;20472;-73
2021/12/28 09:11:33;;;;;;;98.90;50.03;;;;;;;;;;5039098;28;20112;-73
2021/12/28 09:13:58;;;;;;;97.10;47.42;;;;;;;;;;5037625;28;20021;-73
2021/12/28 09:16:24;;;;;;;99.70;48.10;;;;;;;;;;5037882;28;20383;-73
2021/12/28 09:18:49;;;;;;;161.45;75.35;;;;;;;;;;5038352;28;20029;-72
2021/12/28 09:21:15;;;;;;;136.95;65.80;;;;;;;;;;5038248;28;20037;-73
2021/12/28 09:23:41;;;;;;;144.10;67.50;;;;;;;;;;5038850;28;20032;-73
2021/12/28 09:26:06;;;;;;;167.55;78.22;;;;;;;;;;5038424;28;20035;-74
2021/12/28 09:28:32;;;;;;;174.10;83.95;;;;;;;;;;5019732;28;20025;-73
2021/12/28 09:30:57;;;;;;;173.48;85.03;;;;;;;;;;5019751;28;20036;-73
2021/12/28 09:33:24;;;;;;;175.73;70.57;;;;;;;;;;5020668;28;20028;-74
2021/12/28 09:35:50;;;;;;;122.97;57.67;;;;;;;;;;5036009;28;20109;-73
2021/12/28 09:38:16;;;;;;;250.15;98.43;;;;;;;;;;5038396;28;20104;-73
2021/12/28 09:40:41;;;;;;;387.45;173.38;;;;;;;;;;5037399;28;20055;-73
2021/12/28 09:43:07;;;;;;;246.73;94.68;;;;;;;;;;5038101;28;20464;-74
2021/12/28 09:45:33;;;;;;;208.20;83.20;;;;;;;;;;5037029;28;20040;-74
2021/12/28 09:47:59;;;;;;;195.90;80.45;;;;;;;;;;5037916;28;20025;-73
2021/12/28 09:50:25;;;;;;;154.05;67.18;;;;;;;;;;5037374;28;20067;-74
2021/12/28 09:52:51;;;;;;;312.05;112.97;;;;;;;;;;5037955;28;20656;-73
2021/12/28 09:55:18;;;;;;;178.85;68.05;;;;;;;;;;5037625;28;20020;-73
2021/12/28 09:57:45;;;;;;;139.85;60.97;;;;;;;;;;5038114;28;20021;-74
2021/12/28 10:00:11;;;;;;;102.20;49.25;;;;;;;;;;5037093;28;20032;-73
2021/12/28 10:02:37;;;;;;;127.38;42.67;;;;;;;;;;5018808;28;20051;-72
2021/12/28 10:05:07;;;;;;;109.80;50.33;;;;;;;;;;5020059;28;20028;-73
2021/12/28 10:07:34;;;;;;;105.97;52.10;;;;;;;;;;5037247;28;20094;-73
2021/12/28 10:10:00;;;;;;;72.63;33.60;;;;;;;;;;5037417;28;20031;-72
2021/12/28 10:12:31;;;;;;;152.82;63.90;;;;;;;;;;5019034;28;20478;-73
2021/12/28 10:15:00;;;;;;;209.07;89.35;;;;;;;;;;5036287;28;20535;-73
2021/12/28 10:17:26;;;;;;;127.73;55.80;;;;;;;;;;5036645;28;20028;-73
2021/12/28 10:19:51;;;;;;;179.15;81.28;;;;;;;;;;5037459;28;20274;-72
2021/12/28 10:22:28;;;;;;;115.45;56.28;;;;;;;;;;5037442;28;20114;-73
2021/12/28 10:25:14;;;;;;;105.40;47.78;;;;;;;;;;5035842;28;20032;-73
2021/12/28 10:27:44;;;;;;;109.25;51.67;;;;;;;;;;5036480;28;20025;-72
2021/12/28 10:30:17;;;;;;;97.35;45.78;;;;;;;;;;5037569;28;20177;-73
2021/12/28 10:32:44;;;;;;;124.38;41.28;;;;;;;;;;5036305;28;20032;-72
2021/12/28 10:35:12;;;;;;;108.07;57.47;;;;;;;;;;5036550;28;20104;-73
2021/12/28 10:37:39;;;;;;;98.43;31.75;;;;;;;;;;5018400;28;20514;-72
2021/12/28 10:40:07;;;;;;;115.68;38.63;;;;;;;;;;5036311;28;20079;-73
2021/12/28 10:42:37;;;;;;;92.05;31.50;;;;;;;;;;5036299;28;20036;-73
2021/12/28 10:45:04;;;;;;;126.75;31.13;;;;;;;;;;5036190;28;20025;-73
2021/12/28 10:47:29;;;;;;;55.47;27.20;;;;;;;;;;5036411;28;20029;-72
2021/12/28 10:49:56;;;;;;;91.07;36.08;;;;;;;;;;5037180;28;20033;-72
2021/12/28 10:52:29;;;;;;;91.00;37.15;;;;;;;;;;5036424;28;20070;-73
2021/12/28 10:55:17;;;;;;;113.72;30.92;;;;;;;;;;5035849;28;20024;-73
2021/12/28 10:57:43;;;;;;;124.50;53.47;;;;;;;;;;5027926;28;20033;-73
2021/12/28 11:00:28;;;;;;;97.30;40.35;;;;;;;;;;5035595;28;20431;-73
2021/12/28 11:03:12;;;;;;;59.65;31.58;;;;;;;;;;5036796;28;20029;-73
2021/12/28 11:05:37;;;;;;;76.75;33.85;;;;;;;;;;5017030;28;20554;-73
2021/12/28 11:08:07;;;;;;;76.38;35.70;;;;;;;;;;5017789;28;20513;-73
2021/12/28 11:10:32;;;;;;;74.75;37.70;;;;;;;;;;5035653;28;20434;-73
2021/12/28 11:12:58;;;;;;;80.05;40.55;;;;;;;;;;5035324;28;20033;-73
2021/12/28 11:15:24;;;;;;;85.28;38.92;;;;;;;;;;5035729;28;20056;-73
2021/12/28 11:17:50;;;;;;;65.35;30.92;;;;;;;;;;5018700;28;20052;-74
2021/12/28 11:20:15;;;;;;;104.13;41.70;;;;;;;;;;5035181;28;20021;-73
2021/12/28 11:23:00;;;;;;;70.68;38.15;;;;;;;;;;5035410;28;20361;-73
2021/12/28 11:25:27;;;;;;;82.85;46.50;;;;;;;;;;5036491;28;20029;-73
2021/12/28 11:28:10;;;;;;;97.15;49.05;;;;;;;;;;5035045;28;20028;-73
2021/12/28 11:30:35;;;;;;;61.05;30.25;;;;;;;;;;5035865;28;20072;-73
2021/12/28 11:33:07;;;;;;;48.10;28.70;;;;;;;;;;5034947;28;20064;-73
2021/12/28 11:35:33;;;;;;;46.88;29.98;;;;;;;;;;5035331;28;20475;-74
2021/12/28 11:37:59;;;;;;;42.80;26.50;;;;;;;;;;5035534;28;20104;-73
2021/12/28 11:40:24;;;;;;;61.67;42.40;;;;;;;;;;5034436;28;20029;-73
2021/12/28 11:42:50;;;;;;;45.58;30.83;;;;;;;;;;5035668;28;20025;-73
2021/12/28 11:45:16;;;;;;;58.83;37.63;;;;;;;;;;5036310;28;20017;-73
2021/12/28 11:47:42;;;;;;;122.32;52.95;;;;;;;;;;5035558;28;20056;-74
2021/12/28 11:50:11;;;;;;;151.93;64.13;;;;;;;;;;5035787;28;20767;-73
2021/12/28 11:52:36;;;;;;;197.18;85.78;;;;;;;;;;5035220;28;20576;-73
2021/12/28 11:55:03;;;;;;;129.07;64.15;;;;;;;;;;5035595;28;20025;-73
2021/12/28 11:57:29;;;;;;;188.98;96.20;;;;;;;;;;5017166;28;20025;-72
2021/12/28 12:00:04;;;;;;;346.05;154.65;;;;;;;;;;5034749;28;20103;-73
2021/12/28 12:02:49;;;;;;;125.68;57.53;;;;;;;;;;5035121;28;20028;-74
2021/12/28 12:05:16;;;;;;;78.22;39.50;;;;;;;;;;5035507;28;20045;-73
2021/12/28 12:07:41;;;;;;;95.95;50.05;;;;;;;;;;5035897;28;20021;-73
2021/12/28 12:10:09;;;;;;;78.18;44.00;;;;;;;;;;5034520;28;20075;-72
2021/12/28 12:12:53;;;;;;;59.13;37.03;;;;;;;;;;5034994;28;20045;-72
2021/12/28 12:15:19;;;;;;;52.42;34.92;;;;;;;;;;5035477;28;20024;-74
2021/12/28 12:17:45;;;;;;;35.03;22.80;;;;;;;;;;5034778;28;20032;-74
2021/12/28 12:20:16;;;;;;;38.90;25.83;;;;;;;;;;5035568;28;20033;-72
2021/12/28 12:22:43;;;;;;;54.03;35.78;;;;;;;;;;5034614;28;20113;-73
2021/12/28 12:25:16;;;;;;;30.23;20.83;;;;;;;;;;5035490;28;20436;-73
2021/12/28 12:27:46;;;;;;;39.90;27.45;;;;;;;;;;5034607;28;20079;-73
2021/12/28 12:30:18;;;;;;;37.75;23.90;;;;;;;;;;5034617;28;20032;-74
2021/12/28 12:32:55;;;;;;;31.10;20.17;;;;;;;;;;5034691;28;20432;-73
2021/12/28 12:35:27;;;;;;;35.30;23.13;;;;;;;;;;5035756;28;20021;-73
2021/12/28 12:37:52;;;;;;;34.67;19.13;;;;;;;;;;5034243;28;20021;-73
2021/12/28 12:40:17;;;;;;;23.00;16.63;;;;;;;;;;5035382;28;20053;-73
2021/12/28 12:42:43;;;;;;;34.38;22.45;;;;;;;;;;5035088;28;20036;-73
2021/12/28 12:45:08;;;;;;;44.65;30.00;;;;;;;;;;5035013;28;20521;-72
2021/12/28 12:47:36;;;;;;;46.78;30.35;;;;;;;;;;5035160;28;20021;-73
2021/12/28 12:50:06;;;;;;;40.20;27.17;;;;;;;;;;5033710;28;20068;-73
2021/12/28 12:52:32;;;;;;;;;;;;;;;;;;5034960;28;20209;-72
2021/12/28 12:54:57;;;;;;;30.20;22.77;;;;;;;;;;5010986;28;20585;-73
2021/12/28 12:57:24;;;;;;;49.28;34.33;;;;;;;;;;5025138;28;20625;-72
2021/12/28 12:59:57;;;;;;;74.05;50.80;;;;;;;;;;5026541;28;20059;-74
2021/12/28 13:02:27;;;;;;;75.32;49.95;;;;;;;;;;5025963;28;20592;-72
2021/12/28 13:04:54;;;;;;;75.20;49.97;;;;;;;;;;5027963;28;20086;-73
2021/12/28 13:07:30;;;;;;;116.85;72.53;;;;;;;;;;5025989;28;20021;-72
2021/12/28 13:09:58;;;;;;;111.70;71.97;;;;;;;;;;5027871;28;20017;-73
2021/12/28 13:12:24;;;;;;;111.43;70.47;;;;;;;;;;5020973;28;20036;-72
2021/12/28 13:14:50;;;;;;;73.72;42.42;;;;;;;;;;5018876;28;20030;-73
2021/12/28 13:17:23;;;;;;;86.45;53.83;;;;;;;;;;5018934;28;20041;-74
2021/12/28 13:19:56;;;;;;;53.80;35.45;;;;;;;;;;5000150;28;20029;-73
2021/12/28 13:22:22;;;;;;;52.53;32.45;;;;;;;;;;5019277;28;20033;-73
2021/12/28 13:24:47;;;;;;;44.88;28.50;;;;;;;;;;5018955;28;20014;-74
2021/12/28 13:27:16;;;;;;;38.05;24.63;;;;;;;;;;5031649;28;20463;-74
2021/12/28 13:29:41;;;;;;;40.63;24.20;;;;;;;;;;5020027;28;20036;-73
2021/12/28 13:32:12;;;;;;;44.05;27.08;;;;;;;;;;5037506;28;20024;-73
2021/12/28 13:34:56;;;;;;;50.67;30.33;;;;;;;;;;5037744;28;20083;-73
2021/12/28 13:37:40;;;;;;;47.70;24.80;;;;;;;;;;5038172;28;20033;-73
2021/12/28 13:40:17;;;;;;;47.30;30.88;;;;;;;;;;5037805;28;20371;-72
2021/12/28 13:42:52;;;;;;;45.88;28.58;;;;;;;;;;5019922;28;20041;-73
2021/12/28 13:45:26;;;;;;;49.35;29.40;;;;;;;;;;5038593;28;20487;-73
2021/12/28 13:47:52;;;;;;;45.03;28.20;;;;;;;;;;5037722;28;20542;-72
2021/12/28 13:50:17;;;;;;;56.38;35.90;;;;;;;;;;5019956;28;20817;-73
2021/12/28 13:52:50;;;;;;;64.63;43.33;;;;;;;;;;5039892;28;20029;-73
2021/12/28 13:55:17;;;;;;;70.32;30.42;;;;;;;;;;5042906;28;20103;-74
2021/12/28 13:57:43;;;;;;;43.88;27.05;;;;;;;;;;5046981;28;20021;-73
2021/12/28 14:00:10;;;;;;;47.78;26.33;;;;;;;;;;5020613;28;20066;-76
2021/12/28 14:02:36;;;;;;;38.70;21.52;;;;;;;;;;5021677;28;20115;-76
2021/12/28 14:05:02;;;;;;;27.92;17.17;;;;;;;;;;5020942;28;20115;-76
2021/12/28 14:07:30;;;;;;;31.75;18.58;;;;;;;;;;5021140;28;20057;-77
2021/12/28 14:09:55;;;;;;;39.78;24.45;;;;;;;;;;5032314;28;20115;-75
2021/12/28 14:12:21;;;;;;;30.52;19.52;;;;;;;;;;5040764;28;20139;-76
2021/12/28 14:14:48;;;;;;;46.70;27.60;;;;;;;;;;5042022;28;20032;-76